createdAt,value
2018-11-07T00:04:40.668Z,11.30
2018-11-07T00:09:33.912Z,11.30
2018-11-07T00:14:27.174Z,11.20
2018-11-07T00:19:20.412Z,11.30
2018-11-07T00:24:13.939Z,11.40
2018-11-07T00:29:08.105Z,11.50
2018-11-07T00:34:02.005Z,11.60
2018-11-07T00:38:55.254Z,11.60
2018-11-07T00:43:48.855Z,11.70
2018-11-07T00:48:42.167Z,11.70
2018-11-07T00:53:35.397Z,11.70
2018-11-07T00:58:28.654Z,11.70
2018-11-07T01:03:24.688Z,11.70
2018-11-07T01:08:18.127Z,11.70
2018-11-07T01:13:11.392Z,11.60
2018-11-07T01:18:05.107Z,11.50
2018-11-07T01:22:58.400Z,11.50
2018-11-07T01:27:51.665Z,11.40
2018-11-07T01:32:45.988Z,11.20
2018-11-07T01:37:39.319Z,11.00
2018-11-07T01:42:32.559Z,11.00
2018-11-07T01:47:25.808Z,10.90
2018-11-07T01:52:20.180Z,10.90
2018-11-07T01:57:13.476Z,10.80
2018-11-07T02:02:06.768Z,10.80
2018-11-07T02:07:00.015Z,10.70
2018-11-07T02:11:53.795Z,10.60
2018-11-07T02:16:47.073Z,10.60
2018-11-07T02:21:40.358Z,10.50
2018-11-07T02:26:33.747Z,10.40
2018-11-07T02:31:30.726Z,10.60
2018-11-07T02:36:28.504Z,10.50
2018-11-07T02:41:21.929Z,10.40
2018-11-07T02:46:15.287Z,10.40
2018-11-07T02:51:08.586Z,10.50
2018-11-07T02:56:01.861Z,10.70
2018-11-07T03:00:55.112Z,10.70
2018-11-07T03:05:48.402Z,10.60
2018-11-07T03:10:41.704Z,10.50
2018-11-07T03:15:34.878Z,10.50
2018-11-07T03:20:31.731Z,10.40
2018-11-07T03:25:25.217Z,10.30
2018-11-07T03:30:18.492Z,10.20
2018-11-07T03:35:17.326Z,10.20
2018-11-07T03:40:11.245Z,10.20
2018-11-07T03:45:04.886Z,10.20
2018-11-07T03:49:58.132Z,10.20
2018-11-07T03:54:51.385Z,10.30
2018-11-07T03:59:45.577Z,10.30
2018-11-07T04:04:38.817Z,10.40
2018-11-07T04:09:32.067Z,10.30
2018-11-07T04:14:25.385Z,10.40
2018-11-07T04:19:18.670Z,10.30
2018-11-07T04:24:11.954Z,10.30
2018-11-07T04:29:06.637Z,10.40
2018-11-07T04:34:00.093Z,10.30
2018-11-07T04:38:54.663Z,10.20
2018-11-07T04:43:47.925Z,10.20
2018-11-07T04:48:41.539Z,10.10
2018-11-07T04:53:34.917Z,10.10
2018-11-07T04:58:28.190Z,10.00
2018-11-07T05:03:21.407Z,9.60
2018-11-07T05:08:14.669Z,9.90
2018-11-07T05:13:07.951Z,9.80
2018-11-07T05:18:01.223Z,9.70
2018-11-07T05:22:54.513Z,9.70
2018-11-07T05:27:47.780Z,9.70
2018-11-07T05:32:41.114Z,9.70
2018-11-07T05:37:34.395Z,9.70
2018-11-07T05:42:27.590Z,9.80
2018-11-07T05:47:20.997Z,9.80
2018-11-07T05:52:14.211Z,9.80
2018-11-07T05:57:07.638Z,9.80
2018-11-07T06:02:00.922Z,9.70
2018-11-07T06:06:54.176Z,9.60
2018-11-07T06:11:47.449Z,9.60
2018-11-07T06:16:40.723Z,9.70
2018-11-07T06:21:34.704Z,9.80
2018-11-07T06:26:27.939Z,9.80
2018-11-07T06:31:21.246Z,9.80
2018-11-07T06:36:14.550Z,9.80
2018-11-07T06:41:08.608Z,9.80
2018-11-07T06:46:01.875Z,9.80
2018-11-07T06:50:55.131Z,9.80
2018-11-07T06:55:48.522Z,9.70
2018-11-07T07:00:41.832Z,9.70
2018-11-07T07:05:35.097Z,9.70
2018-11-07T07:10:28.353Z,9.60
2018-11-07T07:15:21.669Z,9.70
2018-11-07T07:20:17.184Z,9.70
2018-11-07T07:25:11.579Z,9.80
2018-11-07T07:30:08.823Z,10.80
2018-11-07T07:35:02.137Z,12.00
2018-11-07T07:39:55.431Z,12.50
2018-11-07T07:44:48.681Z,12.70
2018-11-07T07:49:41.936Z,12.80
2018-11-07T07:54:35.236Z,13.00
2018-11-07T07:59:28.546Z,12.90
2018-11-07T08:04:21.818Z,13.70
2018-11-07T08:09:15.129Z,13.80
2018-11-07T08:14:09.305Z,14.00
2018-11-07T08:19:02.531Z,14.40
2018-11-07T08:23:55.879Z,14.00
2018-11-07T08:28:49.210Z,14.20
2018-11-07T08:33:42.630Z,14.40
2018-11-07T08:38:35.936Z,14.30
2018-11-07T08:43:29.213Z,14.40
2018-11-07T08:48:22.486Z,14.50
2018-11-07T08:53:15.725Z,14.70
2018-11-07T08:58:08.985Z,14.80
2018-11-07T09:03:02.349Z,15.10
2018-11-07T09:07:58.436Z,15.30
2018-11-07T09:12:51.712Z,15.70
2018-11-07T09:17:45.061Z,15.20
2018-11-07T09:22:38.672Z,14.90
2018-11-07T09:27:31.901Z,14.60
2018-11-07T09:32:25.155Z,14.50
2018-11-07T09:37:18.429Z,14.50
2018-11-07T09:42:11.684Z,14.50
2018-11-07T09:47:05.676Z,14.50
2018-11-07T09:51:58.940Z,14.50
2018-11-07T09:56:52.352Z,14.50
2018-11-07T10:01:45.626Z,14.70
2018-11-07T10:06:38.957Z,14.80
2018-11-07T10:11:32.213Z,15.10
2018-11-07T10:16:25.484Z,15.30
2018-11-07T10:21:18.755Z,15.40
2018-11-07T10:26:12.064Z,15.40
2018-11-07T10:31:05.478Z,15.40
2018-11-07T10:35:58.812Z,15.50
2018-11-07T10:40:52.125Z,15.70
2018-11-07T10:45:46.479Z,15.70
2018-11-07T10:50:39.775Z,15.80
2018-11-07T10:55:33.218Z,16.10
2018-11-07T11:00:32.111Z,16.40
2018-11-07T11:05:25.666Z,16.50
2018-11-07T11:10:19.079Z,16.70
2018-11-07T11:15:12.513Z,16.90
2018-11-07T11:20:09.131Z,17.00
2018-11-07T11:25:02.565Z,16.90
2018-11-07T11:29:55.930Z,17.30
2018-11-07T11:35:25.178Z,17.50
2018-11-07T11:40:19.243Z,17.50
2018-11-07T11:45:13.812Z,17.50
2018-11-07T11:50:11.177Z,17.40
2018-11-07T11:55:05.485Z,17.40
2018-11-07T12:00:00.060Z,17.30
2018-11-07T12:04:57.683Z,17.20
2018-11-07T12:09:55.094Z,17.30
2018-11-07T12:14:52.168Z,17.20
2018-11-07T12:19:50.699Z,17.10
2018-11-07T12:24:49.221Z,17.00
2018-11-07T12:29:46.687Z,17.00
2018-11-07T12:34:45.341Z,16.90
2018-11-07T12:39:43.181Z,16.90
2018-11-07T12:44:41.065Z,16.90
2018-11-07T12:49:36.956Z,16.90
2018-11-07T12:54:34.803Z,16.90
2018-11-07T12:59:33.113Z,16.80
2018-11-07T13:04:33.216Z,16.80
2018-11-07T13:09:34.407Z,16.80
2018-11-07T13:14:35.155Z,16.90
2018-11-07T13:19:33.735Z,16.90
2018-11-07T13:24:30.035Z,16.90
2018-11-07T13:29:23.324Z,16.80
2018-11-07T13:34:16.732Z,16.70
2018-11-07T13:39:11.934Z,16.70
2018-11-07T13:44:05.062Z,16.70
2018-11-07T13:48:58.400Z,16.70
2018-11-07T13:53:51.707Z,16.70
2018-11-07T13:58:45.575Z,16.60
2018-11-07T14:03:38.948Z,16.50
2018-11-07T14:08:32.286Z,16.40
2018-11-07T14:13:25.561Z,16.40
2018-11-07T14:18:19.097Z,16.30
2018-11-07T14:23:12.401Z,16.30
2018-11-07T14:28:07.034Z,16.30
2018-11-07T14:33:01.227Z,16.40
2018-11-07T14:37:55.327Z,16.30
2018-11-07T14:42:48.727Z,16.30
2018-11-07T14:47:42.597Z,16.20
2018-11-07T14:52:36.649Z,16.10
2018-11-07T14:57:30.055Z,16.10
2018-11-07T15:02:23.354Z,16.00
2018-11-07T15:07:17.870Z,16.00
2018-11-07T15:12:18.372Z,15.90
2018-11-07T15:17:11.645Z,15.90
2018-11-07T15:22:06.450Z,15.80
2018-11-07T15:26:59.751Z,15.80
2018-11-07T15:31:53.032Z,15.80
2018-11-07T15:36:46.325Z,15.70
2018-11-07T15:41:40.272Z,15.70
2018-11-07T15:46:33.537Z,15.70
2018-11-07T15:51:32.584Z,15.80
2018-11-07T15:56:25.849Z,15.70
2018-11-07T16:01:19.151Z,15.70
2018-11-07T16:06:13.260Z,15.70
2018-11-07T16:11:06.803Z,15.70
2018-11-07T16:16:00.122Z,15.70
2018-11-07T16:20:53.407Z,15.50
2018-11-07T16:25:46.733Z,15.50
2018-11-07T16:30:40.014Z,15.40
2018-11-07T16:35:33.294Z,15.40
2018-11-07T16:40:26.613Z,15.50
2018-11-07T16:45:19.899Z,15.50
2018-11-07T16:50:14.217Z,15.50
2018-11-07T16:55:07.576Z,15.50
2018-11-07T17:00:00.891Z,15.50
2018-11-07T17:04:54.139Z,15.50
2018-11-07T17:09:47.398Z,15.50
2018-11-07T17:14:40.678Z,15.50
2018-11-07T17:19:33.948Z,15.40
2018-11-07T17:24:27.375Z,15.40
2018-11-07T17:29:21.140Z,15.30
2018-11-07T17:34:14.414Z,15.20
2018-11-07T17:39:08.252Z,15.20
2018-11-07T17:44:01.539Z,15.20
2018-11-07T17:48:54.829Z,15.10
2018-11-07T17:53:48.101Z,14.90
2018-11-07T17:58:41.417Z,14.80
2018-11-07T18:03:34.760Z,14.70
2018-11-07T18:08:28.018Z,14.60
2018-11-07T18:13:21.317Z,14.60
2018-11-07T18:18:14.567Z,14.50
2018-11-07T18:23:07.827Z,14.40
2018-11-07T18:28:01.208Z,14.40
2018-11-07T18:32:54.562Z,14.30
2018-11-07T18:37:47.957Z,14.30
2018-11-07T18:42:41.445Z,14.20
2018-11-07T18:47:34.733Z,14.20
2018-11-07T18:52:27.999Z,14.10
2018-11-07T18:57:21.550Z,14.10
2018-11-07T19:02:14.914Z,14.10
2018-11-07T19:07:08.257Z,14.20
2018-11-07T19:12:01.713Z,14.20
2018-11-07T19:16:55.032Z,14.20
2018-11-07T19:21:50.397Z,14.10
2018-11-07T19:26:46.510Z,14.10
2018-11-07T19:31:42.474Z,14.10
2018-11-07T19:36:35.895Z,14.10
2018-11-07T19:41:29.122Z,14.10
2018-11-07T19:46:22.420Z,14.00
2018-11-07T19:51:15.736Z,14.10
2018-11-07T19:56:09.109Z,14.00
2018-11-07T20:01:02.370Z,14.00
2018-11-07T20:05:55.746Z,13.90
2018-11-07T20:10:49.122Z,13.90
2018-11-07T20:15:42.420Z,13.90
2018-11-07T20:20:35.877Z,13.90
2018-11-07T20:25:29.292Z,13.90
2018-11-07T20:30:22.967Z,13.90
2018-11-07T20:35:17.427Z,13.90
2018-11-07T20:40:13.616Z,13.90
2018-11-07T20:45:07.717Z,13.90
2018-11-07T20:50:01.000Z,13.80
2018-11-07T20:54:54.358Z,13.80
2018-11-07T20:59:47.626Z,13.80
2018-11-07T21:04:40.933Z,13.70
2018-11-07T21:09:34.188Z,13.70
2018-11-07T21:14:27.639Z,13.60
2018-11-07T21:19:20.990Z,13.60
2018-11-07T21:24:14.273Z,13.70
2018-11-07T21:29:08.228Z,13.70
2018-11-07T21:34:01.566Z,13.60
2018-11-07T21:38:54.878Z,13.50
2018-11-07T21:43:48.256Z,13.40
2018-11-07T21:48:41.567Z,13.40
2018-11-07T21:53:34.823Z,13.40
2018-11-07T21:58:28.072Z,13.30
2018-11-07T22:03:21.543Z,13.30
2018-11-07T22:08:14.797Z,13.30
2018-11-07T22:13:08.210Z,13.30
2018-11-07T22:18:01.438Z,13.30
2018-11-07T22:22:54.784Z,13.30
2018-11-07T22:27:48.083Z,13.30
2018-11-07T22:32:41.383Z,13.20
2018-11-07T22:37:34.697Z,13.20
2018-11-07T22:42:27.921Z,13.10
2018-11-07T22:47:21.959Z,13.10
2018-11-07T22:52:15.277Z,13.10
2018-11-07T22:57:08.527Z,13.00
2018-11-07T23:02:01.830Z,13.00
2018-11-07T23:06:55.105Z,12.90
2018-11-07T23:11:48.380Z,12.90
2018-11-07T23:16:43.025Z,12.80
2018-11-07T23:21:36.582Z,12.80
2018-11-07T23:26:29.889Z,12.70
2018-11-07T23:31:23.119Z,12.70
2018-11-07T23:36:16.374Z,12.70
2018-11-07T23:41:09.667Z,12.70
2018-11-07T23:46:02.913Z,12.70
2018-11-07T23:50:56.131Z,12.60
2018-11-07T23:55:49.405Z,12.60
